createdAt,value
2022-09-11T00:01:49.053Z,100.00
2022-09-11T00:04:17.567Z,100.00
2022-09-11T00:06:46.083Z,100.00
2022-09-11T00:09:15.088Z,100.00
2022-09-11T00:11:44.345Z,100.00
2022-09-11T00:14:15.730Z,100.00
2022-09-11T00:16:46.802Z,100.00
2022-09-11T00:19:21.035Z,100.00
2022-09-11T00:21:51.616Z,100.00
2022-09-11T00:24:21.035Z,100.00
2022-09-11T00:26:49.561Z,100.00
2022-09-11T00:29:18.064Z,100.00
2022-09-11T00:31:46.703Z,100.00
2022-09-11T00:34:15.269Z,100.00
2022-09-11T00:36:44.302Z,100.00
2022-09-11T00:39:15.376Z,100.00
2022-09-11T00:41:47.194Z,100.00
2022-09-11T00:44:18.939Z,100.00
2022-09-11T00:46:55.251Z,100.00
2022-09-11T00:49:31.578Z,100.00
2022-09-11T00:52:25.249Z,100.00
2022-09-11T00:54:59.121Z,100.00
2022-09-11T00:57:31.624Z,100.00
2022-09-11T01:00:02.659Z,100.00
2022-09-11T01:02:35.223Z,100.00
2022-09-11T01:05:04.769Z,100.00
2022-09-11T01:07:35.214Z,100.00
2022-09-11T01:10:06.213Z,100.00
2022-09-11T01:12:49.497Z,100.00
2022-09-11T01:15:48.429Z,100.00
2022-09-11T01:18:28.114Z,100.00
2022-09-11T01:21:37.374Z,100.00
2022-09-11T01:24:14.966Z,100.00
2022-09-11T01:27:20.323Z,100.00
2022-09-11T01:30:03.191Z,100.00
2022-09-11T01:32:43.219Z,100.00
2022-09-11T01:35:25.131Z,100.00
2022-09-11T01:38:07.401Z,100.00
2022-09-11T01:40:52.359Z,100.00
2022-09-11T01:43:28.810Z,100.00
2022-09-11T01:46:00.804Z,100.00
2022-09-11T01:48:40.175Z,100.00
2022-09-11T01:51:14.309Z,100.00
2022-09-11T01:53:50.216Z,100.00
2022-09-11T01:56:25.073Z,100.00
2022-09-11T01:59:01.518Z,100.00
2022-09-11T02:01:35.439Z,100.00
2022-09-11T02:04:11.841Z,100.00
2022-09-11T02:06:51.032Z,100.00
2022-09-11T02:09:25.114Z,100.00
2022-09-11T02:11:56.840Z,100.00
2022-09-11T02:14:43.158Z,100.00
2022-09-11T02:17:44.781Z,100.00
2022-09-11T02:20:13.924Z,100.00
2022-09-11T02:22:43.328Z,100.00
2022-09-11T02:25:12.724Z,100.00
2022-09-11T02:27:41.613Z,100.00
2022-09-11T02:30:11.187Z,100.00
2022-09-11T02:32:44.746Z,100.00
2022-09-11T02:35:14.083Z,100.00
2022-09-11T02:37:57.973Z,100.00
2022-09-11T02:40:42.740Z,100.00
2022-09-11T02:43:29.289Z,100.00
2022-09-11T02:46:06.660Z,100.00
2022-09-11T02:48:56.797Z,100.00
2022-09-11T02:52:10.517Z,100.00
2022-09-11T02:54:42.146Z,100.00
2022-09-11T02:57:22.271Z,100.00
2022-09-11T03:00:10.542Z,100.00
2022-09-11T03:02:44.053Z,100.00
2022-09-11T03:05:14.566Z,100.00
2022-09-11T03:07:43.083Z,100.00
2022-09-11T03:10:12.768Z,100.00
2022-09-11T03:12:41.287Z,100.00
2022-09-11T03:15:13.217Z,100.00
2022-09-11T03:17:42.472Z,100.00
2022-09-11T03:20:11.060Z,100.00
2022-09-11T03:22:40.884Z,100.00
2022-09-11T03:25:09.774Z,100.00
2022-09-11T03:27:40.574Z,100.00
2022-09-11T03:30:10.308Z,100.00
2022-09-11T03:32:38.798Z,100.00
2022-09-11T03:35:07.648Z,100.00
2022-09-11T03:37:36.219Z,100.00
2022-09-11T03:40:05.778Z,100.00
2022-09-11T03:42:34.471Z,100.00
2022-09-11T03:45:02.968Z,100.00
2022-09-11T03:47:31.544Z,100.00
2022-09-11T03:50:00.020Z,100.00
2022-09-11T03:52:29.785Z,100.00
2022-09-11T03:54:58.483Z,100.00
2022-09-11T03:57:27.278Z,100.00
2022-09-11T03:59:58.043Z,100.00
2022-09-11T04:02:26.618Z,100.00
2022-09-11T04:04:55.164Z,100.00
2022-09-11T04:07:23.720Z,100.00
2022-09-11T04:09:52.866Z,100.00
2022-09-11T04:12:21.361Z,100.00
2022-09-11T04:14:51.438Z,100.00
2022-09-11T04:17:20.250Z,100.00
2022-09-11T04:19:49.329Z,100.00
2022-09-11T04:22:28.155Z,100.00
2022-09-11T04:25:04.569Z,100.00
2022-09-11T04:27:33.038Z,100.00
2022-09-11T04:30:01.555Z,100.00
2022-09-11T04:32:30.501Z,100.00
2022-09-11T04:34:59.275Z,100.00
2022-09-11T04:37:29.121Z,100.00
2022-09-11T04:39:57.676Z,100.00
2022-09-11T04:42:27.509Z,100.00
2022-09-11T04:44:56.037Z,100.00
2022-09-11T04:47:24.564Z,100.00
2022-09-11T04:49:53.400Z,100.00
2022-09-11T04:52:22.080Z,100.00
2022-09-11T04:54:50.745Z,100.00
2022-09-11T04:57:19.435Z,100.00
2022-09-11T04:59:49.064Z,100.00
2022-09-11T05:02:17.652Z,100.00
2022-09-11T05:04:46.147Z,100.00
2022-09-11T05:07:15.501Z,100.00
2022-09-11T05:09:43.989Z,100.00
2022-09-11T05:12:12.513Z,100.00
2022-09-11T05:14:40.995Z,100.00
2022-09-11T05:17:09.434Z,100.00
2022-09-11T05:19:37.910Z,100.00
2022-09-11T05:22:06.447Z,100.00
2022-09-11T05:24:34.933Z,100.00
2022-09-11T05:27:03.510Z,99.78
2022-09-11T05:29:32.856Z,100.00
2022-09-11T05:32:01.390Z,99.35
2022-09-11T05:34:29.987Z,100.00
2022-09-11T05:36:58.973Z,98.38
2022-09-11T05:39:27.425Z,98.30
2022-09-11T05:41:58.944Z,97.81
2022-09-11T05:44:27.516Z,98.22
2022-09-11T05:46:56.702Z,98.19
2022-09-11T05:49:26.570Z,99.87
2022-09-11T05:51:55.137Z,99.11
2022-09-11T05:54:23.773Z,98.44
2022-09-11T05:56:52.268Z,98.27
2022-09-11T05:59:21.421Z,99.23
2022-09-11T06:01:50.842Z,98.72
2022-09-11T06:04:19.721Z,99.72
2022-09-11T06:06:51.281Z,100.00
2022-09-11T06:09:19.777Z,97.72
2022-09-11T06:11:48.533Z,96.95
2022-09-11T06:14:17.097Z,96.40
2022-09-11T06:16:45.561Z,96.77
2022-09-11T06:19:14.060Z,95.39
2022-09-11T06:21:42.526Z,94.65
2022-09-11T06:24:11.041Z,95.59
2022-09-11T06:26:39.628Z,94.69
2022-09-11T06:29:08.871Z,95.04
2022-09-11T06:31:37.309Z,95.22
2022-09-11T06:34:05.856Z,94.51
2022-09-11T06:36:35.131Z,94.98
2022-09-11T06:39:03.829Z,96.02
2022-09-11T06:41:33.025Z,95.18
2022-09-11T06:44:01.501Z,95.73
2022-09-11T06:46:30.535Z,96.95
2022-09-11T06:48:59.120Z,97.23
2022-09-11T06:51:28.563Z,99.29
2022-09-11T06:53:59.041Z,98.45
2022-09-11T06:56:27.658Z,96.13
2022-09-11T06:58:56.557Z,95.23
2022-09-11T07:01:26.124Z,94.52
2022-09-11T07:03:56.227Z,94.27
2022-09-11T07:06:29.837Z,94.22
2022-09-11T07:09:03.728Z,94.61
2022-09-11T07:11:33.755Z,94.51
2022-09-11T07:14:06.760Z,93.82
2022-09-11T07:16:36.150Z,94.50
2022-09-11T07:19:05.813Z,93.40
2022-09-11T07:21:35.536Z,93.51
2022-09-11T07:24:05.043Z,94.12
2022-09-11T07:26:33.578Z,92.36
2022-09-11T07:29:02.381Z,92.26
2022-09-11T07:31:34.135Z,94.36
2022-09-11T07:34:05.983Z,92.51
2022-09-11T07:36:36.548Z,93.32
2022-09-11T07:39:05.825Z,94.32
2022-09-11T07:41:34.439Z,93.28
2022-09-11T07:44:04.725Z,91.74
2022-09-11T07:46:34.018Z,92.78
2022-09-11T07:49:05.573Z,92.68
2022-09-11T07:51:36.080Z,93.15
2022-09-11T07:54:04.815Z,93.27
2022-09-11T07:56:34.998Z,90.77
2022-09-11T07:59:03.967Z,92.22
2022-09-11T08:01:34.323Z,90.45
2022-09-11T08:04:05.656Z,90.87
2022-09-11T08:06:36.791Z,92.11
2022-09-11T08:09:16.752Z,92.10
2022-09-11T08:11:49.698Z,95.06
2022-09-11T08:14:18.742Z,92.23
2022-09-11T08:16:47.229Z,91.54
2022-09-11T08:19:19.751Z,90.04
2022-09-11T08:21:49.057Z,88.44
2022-09-11T08:24:19.002Z,89.13
2022-09-11T08:26:49.092Z,90.55
2022-09-11T08:29:19.272Z,92.10
2022-09-11T08:31:47.808Z,91.62
2022-09-11T08:34:16.639Z,92.15
2022-09-11T08:36:45.151Z,92.15
2022-09-11T08:39:13.616Z,92.53
2022-09-11T08:41:50.955Z,91.82
2022-09-11T08:44:28.841Z,94.57
2022-09-11T08:47:03.764Z,92.46
2022-09-11T08:49:40.495Z,90.11
2022-09-11T08:52:14.249Z,94.86
2022-09-11T08:54:44.663Z,91.66
2022-09-11T08:57:57.487Z,93.33
2022-09-11T09:00:32.087Z,91.20
2022-09-11T09:03:48.182Z,90.08
2022-09-11T09:06:57.350Z,91.50
2022-09-11T09:09:44.015Z,90.95
2022-09-11T09:12:33.431Z,90.08
2022-09-11T09:15:28.764Z,90.54
2022-09-11T09:18:23.756Z,90.58
2022-09-11T09:21:21.728Z,89.37
2022-09-11T09:23:56.511Z,90.47
2022-09-11T09:26:41.088Z,91.58
2022-09-11T09:29:18.980Z,90.59
2022-09-11T09:31:51.117Z,88.95
2022-09-11T09:34:23.028Z,88.97
2022-09-11T09:37:05.356Z,89.97
2022-09-11T09:39:37.260Z,89.82
2022-09-11T09:42:37.814Z,90.92
2022-09-11T09:45:45.114Z,91.48
2022-09-11T09:48:13.975Z,91.17
2022-09-11T09:50:47.630Z,92.04
2022-09-11T09:53:51.177Z,92.03
2022-09-11T09:56:21.412Z,93.30
2022-09-11T09:58:57.425Z,92.06
2022-09-11T10:01:41.549Z,91.09
2022-09-11T10:04:23.653Z,92.35
2022-09-11T10:07:09.380Z,92.35
2022-09-11T10:09:46.675Z,92.90
2022-09-11T10:12:26.921Z,93.49
2022-09-11T10:15:03.603Z,93.77
2022-09-11T10:17:35.888Z,93.02
2022-09-11T10:20:27.110Z,93.47
2022-09-11T10:22:57.157Z,95.78
2022-09-11T10:25:28.214Z,93.88
2022-09-11T10:28:13.210Z,92.72
2022-09-11T10:30:47.687Z,92.07
2022-09-11T10:33:36.716Z,91.14
2022-09-11T10:36:09.483Z,89.92
2022-09-11T10:38:44.237Z,89.83
2022-09-11T10:41:16.080Z,90.31
2022-09-11T10:44:02.838Z,91.05
2022-09-11T10:46:39.494Z,90.87
2022-09-11T10:49:08.119Z,91.31
2022-09-11T10:51:46.807Z,91.73
2022-09-11T10:54:21.639Z,91.95
2022-09-11T10:57:17.322Z,92.95
2022-09-11T11:00:10.537Z,93.42
2022-09-11T11:02:47.007Z,94.24
2022-09-11T11:05:32.437Z,95.38
2022-09-11T11:08:10.036Z,95.40
2022-09-11T11:11:04.989Z,96.33
2022-09-11T11:13:43.591Z,97.06
2022-09-11T11:16:24.460Z,98.03
2022-09-11T11:19:09.918Z,98.03
2022-09-11T11:22:05.221Z,96.37
2022-09-11T11:24:51.237Z,95.72
2022-09-11T11:27:46.797Z,95.74
2022-09-11T11:30:25.132Z,96.80
2022-09-11T11:33:38.476Z,97.49
2022-09-11T11:36:22.204Z,97.68
2022-09-11T11:39:01.726Z,98.03
2022-09-11T11:41:45.623Z,98.73
2022-09-11T11:44:22.446Z,99.14
2022-09-11T11:46:56.608Z,99.49
2022-09-11T11:49:50.791Z,99.39
2022-09-11T11:52:37.447Z,99.86
2022-09-11T11:55:15.647Z,99.97
2022-09-11T11:57:57.179Z,100.00
2022-09-11T12:00:31.142Z,100.00
2022-09-11T12:03:08.613Z,100.00
2022-09-11T12:05:39.629Z,100.00
2022-09-11T12:08:15.071Z,100.00
2022-09-11T12:10:53.093Z,100.00
2022-09-11T12:13:31.194Z,100.00
2022-09-11T12:16:17.199Z,100.00
2022-09-11T12:19:16.162Z,100.00
2022-09-11T12:22:12.146Z,100.00
2022-09-11T12:24:53.485Z,100.00
2022-09-11T12:27:37.412Z,100.00
2022-09-11T12:30:17.702Z,100.00
2022-09-11T12:32:55.117Z,100.00
2022-09-11T12:35:49.618Z,100.00
2022-09-11T12:38:31.356Z,100.00
2022-09-11T12:41:08.489Z,100.00
2022-09-11T12:43:36.985Z,100.00
2022-09-11T12:46:10.098Z,100.00
2022-09-11T12:49:05.686Z,100.00
2022-09-11T12:51:42.217Z,100.00
2022-09-11T12:54:19.545Z,100.00
2022-09-11T12:56:54.677Z,100.00
2022-09-11T12:59:45.303Z,100.00
2022-09-11T13:02:39.256Z,100.00
2022-09-11T13:05:19.897Z,100.00
2022-09-11T13:07:54.029Z,100.00
2022-09-11T13:10:38.397Z,100.00
2022-09-11T13:13:28.372Z,100.00
2022-09-11T13:15:59.074Z,100.00
2022-09-11T13:18:34.148Z,100.00
2022-09-11T13:21:26.358Z,100.00
2022-09-11T13:23:55.452Z,100.00
2022-09-11T13:26:28.534Z,100.00
2022-09-11T13:29:00.109Z,100.00
2022-09-11T13:31:38.409Z,100.00
2022-09-11T13:34:15.109Z,100.00
2022-09-11T13:36:44.098Z,100.00
2022-09-11T13:39:15.863Z,100.00
2022-09-11T13:41:45.648Z,100.00
2022-09-11T13:44:43.189Z,100.00
2022-09-11T13:47:22.699Z,100.00
2022-09-11T13:49:59.927Z,100.00
2022-09-11T13:52:31.925Z,100.00
2022-09-11T13:55:11.270Z,100.00
2022-09-11T13:58:03.241Z,100.00
2022-09-11T14:00:49.907Z,100.00
2022-09-11T14:03:21.643Z,100.00
2022-09-11T14:05:53.087Z,100.00
2022-09-11T14:08:36.315Z,100.00
2022-09-11T14:11:11.801Z,100.00
2022-09-11T14:13:46.631Z,100.00
2022-09-11T14:16:15.215Z,100.00
2022-09-11T14:19:07.864Z,100.00
2022-09-11T14:21:39.959Z,100.00
2022-09-11T14:24:28.725Z,100.00
2022-09-11T14:26:59.954Z,100.00
2022-09-11T14:29:39.093Z,100.00
2022-09-11T14:32:35.839Z,100.00
2022-09-11T14:35:07.644Z,100.00
2022-09-11T14:37:45.064Z,100.00
2022-09-11T14:40:19.819Z,100.00
2022-09-11T14:42:49.576Z,100.00
2022-09-11T14:45:25.586Z,100.00
2022-09-11T14:47:54.661Z,100.00
2022-09-11T14:50:25.188Z,100.00
2022-09-11T14:52:53.889Z,100.00
2022-09-11T14:55:22.560Z,100.00
2022-09-11T14:57:51.494Z,100.00
2022-09-11T15:00:21.046Z,100.00
2022-09-11T15:02:49.582Z,100.00
2022-09-11T15:05:23.993Z,100.00
2022-09-11T15:07:54.043Z,100.00
2022-09-11T15:10:23.009Z,100.00
2022-09-11T15:12:51.592Z,100.00
2022-09-11T15:15:20.313Z,100.00
2022-09-11T15:17:48.769Z,100.00
2022-09-11T15:20:17.463Z,100.00
2022-09-11T15:22:46.239Z,100.00
2022-09-11T15:25:14.840Z,100.00
2022-09-11T15:27:43.520Z,100.00
2022-09-11T15:30:12.437Z,100.00
2022-09-11T15:32:41.042Z,100.00
2022-09-11T15:35:10.508Z,100.00
2022-09-11T15:37:39.164Z,100.00
2022-09-11T15:40:08.632Z,100.00
2022-09-11T15:42:39.719Z,100.00
2022-09-11T15:45:09.380Z,100.00
2022-09-11T15:47:37.980Z,100.00
2022-09-11T15:50:07.448Z,100.00
2022-09-11T15:52:37.417Z,100.00
2022-09-11T15:55:06.263Z,100.00
2022-09-11T15:57:35.649Z,100.00
2022-09-11T16:00:05.173Z,100.00
2022-09-11T16:02:33.600Z,100.00
2022-09-11T16:05:02.836Z,100.00
2022-09-11T16:07:31.375Z,100.00
2022-09-11T16:10:00.093Z,100.00
2022-09-11T16:12:28.627Z,100.00
2022-09-11T16:14:57.160Z,100.00
2022-09-11T16:17:31.753Z,100.00
2022-09-11T16:20:00.377Z,100.00
2022-09-11T16:22:32.354Z,100.00
2022-09-11T16:25:00.920Z,100.00
2022-09-11T16:27:29.435Z,100.00
2022-09-11T16:32:47.217Z,100.00
2022-09-11T16:35:15.973Z,100.00
2022-09-11T16:37:45.238Z,100.00
2022-09-11T16:40:13.813Z,100.00
2022-09-11T16:42:42.382Z,100.00
2022-09-11T16:45:11.275Z,100.00
2022-09-11T16:47:39.974Z,100.00
2022-09-11T16:50:08.949Z,100.00
2022-09-11T16:52:37.634Z,100.00
2022-09-11T16:55:08.359Z,100.00
2022-09-11T16:57:37.137Z,100.00
2022-09-11T17:00:08.923Z,100.00
2022-09-11T17:02:38.529Z,100.00
2022-09-11T17:05:09.235Z,100.00
2022-09-11T17:07:38.156Z,100.00
2022-09-11T17:10:07.032Z,100.00
2022-09-11T17:12:35.539Z,100.00
2022-09-11T17:15:04.313Z,100.00
2022-09-11T17:17:32.852Z,100.00
2022-09-11T17:20:01.422Z,100.00
2022-09-11T17:22:30.761Z,100.00
2022-09-11T17:24:59.365Z,100.00
2022-09-11T17:27:28.453Z,100.00
2022-09-11T17:29:58.460Z,100.00
2022-09-11T17:32:29.164Z,100.00
2022-09-11T17:34:59.498Z,100.00
2022-09-11T17:37:28.665Z,100.00
2022-09-11T17:39:57.249Z,100.00
2022-09-11T17:42:26.166Z,100.00
2022-09-11T17:44:54.694Z,100.00
2022-09-11T17:47:23.547Z,100.00
2022-09-11T17:49:52.194Z,100.00
2022-09-11T17:52:21.358Z,100.00
2022-09-11T17:54:50.176Z,100.00
2022-09-11T17:57:18.762Z,100.00
2022-09-11T17:59:51.423Z,100.00
2022-09-11T18:02:20.829Z,100.00
2022-09-11T18:04:49.636Z,100.00
2022-09-11T18:07:19.215Z,100.00
2022-09-11T18:09:48.118Z,100.00
2022-09-11T18:12:16.904Z,100.00
2022-09-11T18:14:45.379Z,100.00
2022-09-11T18:17:13.937Z,100.00
2022-09-11T18:19:42.655Z,100.00
2022-09-11T18:22:11.210Z,100.00
2022-09-11T18:24:40.048Z,100.00
2022-09-11T18:27:09.959Z,100.00
2022-09-11T18:29:40.301Z,100.00
2022-09-11T18:32:10.128Z,100.00
2022-09-11T18:34:39.586Z,100.00
2022-09-11T18:37:08.881Z,100.00
2022-09-11T18:39:38.164Z,100.00
2022-09-11T18:42:08.209Z,100.00
2022-09-11T18:44:36.807Z,100.00
2022-09-11T18:47:05.446Z,100.00
2022-09-11T18:49:35.869Z,100.00
2022-09-11T18:52:04.625Z,100.00
2022-09-11T18:54:34.770Z,100.00
2022-09-11T18:57:04.556Z,100.00
2022-09-11T18:59:33.065Z,100.00
2022-09-11T19:02:01.826Z,100.00
2022-09-11T19:04:30.444Z,100.00
2022-09-11T19:07:00.253Z,100.00
2022-09-11T19:09:30.311Z,100.00
2022-09-11T19:12:00.225Z,100.00
2022-09-11T19:14:28.985Z,100.00
2022-09-11T19:16:57.518Z,100.00
2022-09-11T19:19:26.938Z,100.00
2022-09-11T19:21:55.511Z,100.00
2022-09-11T19:24:29.188Z,100.00
2022-09-11T19:26:59.727Z,100.00
2022-09-11T19:29:28.730Z,100.00
2022-09-11T19:31:57.274Z,100.00
2022-09-11T19:34:25.979Z,100.00
2022-09-11T19:36:54.527Z,100.00
2022-09-11T19:39:23.092Z,100.00
2022-09-11T19:41:51.900Z,100.00
2022-09-11T19:44:21.846Z,100.00
2022-09-11T19:46:54.415Z,100.00
2022-09-11T19:49:23.084Z,100.00
2022-09-11T19:51:54.519Z,100.00
2022-09-11T19:54:24.003Z,100.00
2022-09-11T19:56:52.602Z,100.00
2022-09-11T19:59:21.325Z,100.00
2022-09-11T20:01:49.942Z,100.00
2022-09-11T20:04:20.123Z,100.00
2022-09-11T20:09:32.058Z,100.00
2022-09-11T20:12:01.915Z,100.00
2022-09-11T20:14:31.563Z,100.00
2022-09-11T20:17:01.671Z,100.00
2022-09-11T20:19:30.393Z,100.00
2022-09-11T20:22:00.440Z,100.00
2022-09-11T20:24:29.252Z,100.00
2022-09-11T20:26:57.710Z,100.00
2022-09-11T20:29:26.246Z,100.00
2022-09-11T20:31:56.165Z,100.00
2022-09-11T20:34:28.943Z,100.00
2022-09-11T20:36:58.033Z,100.00
2022-09-11T20:39:26.647Z,100.00
2022-09-11T20:41:55.140Z,100.00
2022-09-11T20:44:25.458Z,100.00
2022-09-11T20:46:54.066Z,100.00
2022-09-11T20:49:22.531Z,100.00
2022-09-11T20:51:51.100Z,100.00
2022-09-11T20:54:19.579Z,100.00
2022-09-11T20:56:48.048Z,100.00
2022-09-11T20:59:16.886Z,100.00
2022-09-11T21:01:45.418Z,100.00
2022-09-11T21:04:13.973Z,100.00
2022-09-11T21:06:42.505Z,100.00
2022-09-11T21:09:13.080Z,100.00
2022-09-11T21:11:45.121Z,100.00
2022-09-11T21:14:15.157Z,100.00
2022-09-11T21:16:43.832Z,100.00
2022-09-11T21:19:12.439Z,100.00
2022-09-11T21:21:44.023Z,100.00
2022-09-11T21:24:14.747Z,100.00
2022-09-11T21:26:43.824Z,100.00
2022-09-11T21:29:14.540Z,100.00
2022-09-11T21:31:43.054Z,100.00
2022-09-11T21:34:11.910Z,100.00
2022-09-11T21:36:40.939Z,100.00
2022-09-11T21:39:09.863Z,100.00
2022-09-11T21:41:38.446Z,100.00
2022-09-11T21:44:07.075Z,100.00
2022-09-11T21:46:35.931Z,100.00
2022-09-11T21:49:04.547Z,100.00
2022-09-11T21:51:33.062Z,100.00
2022-09-11T21:54:02.738Z,100.00
2022-09-11T21:56:33.473Z,100.00
2022-09-11T21:59:02.418Z,100.00
2022-09-11T22:01:32.904Z,100.00
2022-09-11T22:04:01.591Z,100.00
2022-09-11T22:06:31.246Z,100.00
2022-09-11T22:09:00.428Z,100.00
2022-09-11T22:11:29.029Z,100.00
2022-09-11T22:13:57.553Z,100.00
2022-09-11T22:16:26.269Z,100.00
2022-09-11T22:18:56.182Z,100.00
2022-09-11T22:21:25.139Z,100.00
2022-09-11T22:23:53.757Z,100.00
2022-09-11T22:26:24.920Z,100.00
2022-09-11T22:28:53.866Z,100.00
2022-09-11T22:31:25.175Z,100.00
2022-09-11T22:33:55.239Z,100.00
2022-09-11T22:36:27.321Z,100.00
2022-09-11T22:38:57.064Z,100.00
2022-09-11T22:41:25.933Z,100.00
2022-09-11T22:43:54.518Z,100.00
2022-09-11T22:46:23.194Z,100.00
2022-09-11T22:48:52.020Z,100.00
2022-09-11T22:51:20.658Z,100.00
2022-09-11T22:53:49.282Z,100.00
2022-09-11T22:56:18.128Z,100.00
2022-09-11T22:58:46.887Z,100.00
2022-09-11T23:01:21.855Z,100.00
2022-09-11T23:03:52.459Z,100.00
2022-09-11T23:06:40.108Z,100.00
2022-09-11T23:09:14.179Z,100.00
2022-09-11T23:11:42.748Z,100.00
2022-09-11T23:14:14.350Z,100.00
2022-09-11T23:16:43.933Z,100.00
2022-09-11T23:19:15.295Z,100.00
2022-09-11T23:21:44.519Z,100.00
2022-09-11T23:24:15.504Z,100.00
2022-09-11T23:26:46.287Z,100.00
2022-09-11T23:29:15.805Z,100.00
2022-09-11T23:31:45.308Z,100.00
2022-09-11T23:34:17.379Z,100.00
2022-09-11T23:36:46.391Z,100.00
2022-09-11T23:39:15.337Z,100.00
2022-09-11T23:41:43.903Z,100.00
2022-09-11T23:44:12.892Z,100.00
2022-09-11T23:46:41.517Z,100.00
2022-09-11T23:49:11.347Z,100.00
2022-09-11T23:51:39.945Z,100.00
2022-09-11T23:54:09.168Z,100.00
2022-09-11T23:56:37.674Z,100.00
2022-09-11T23:59:06.231Z,100.00
